Saturday, February 24, 2018, 3:10 AM EST
Back to Local

KHUL, Houlton Int'l Airport

Location: Houlton, ME, United States Lat: 46.117
Local Time: 3:10 AM EST ( 8:10 GMT) Lon: -67.8
Time Zone: US/Eastern Elev: 492 ft

Show me the last for .
Show Decoded

2018-02-24 02:53 METAR KHUL 240753Z AUTO 22010G17KT 9SM OVC006 00/M01 A2980 RMK AO2 SLP097
                 T00001006 =
2018-02-24 01:53 METAR KHUL 240653Z AUTO 21008KT 7SM OVC005 M01/M01 A2983 RMK AO2 SLP108
                 T10061011 =
2018-02-24 00:53 METAR KHUL 240553Z AUTO 20009KT 8SM OVC006 M01/M02 A2986 RMK AO2 SNE05 SLP118
                 P0000 60006 I6001 T10111017 11011 21050 56034 =
2018-02-24 00:03 METAR KHUL 240503Z AUTO 20011G16KT 4SM -SN BR BKN009 OVC014 M02/M03 A2990 RMK
                 AO2 P0000 T10171028 =
2018-02-23 23:53 METAR KHUL 240453Z AUTO 20009G17KT 2 1/2SM -SN BR BKN009 OVC014 M02/M03 A2990
                 RMK AO2 SNB0358 SLP135 P0001 T10171028 410171206 =
2018-02-23 23:48 METAR KHUL 240448Z AUTO 19010G17KT 2 1/2SM -SN BR OVC009 M02/M03 A2991 RMK AO2
                 SNB0358 P0001 =
2018-02-23 23:40 METAR KHUL 240440Z AUTO 20010G17KT 3SM -SN BR OVC009 M02/M03 A2992 RMK AO2
                 SNB0358 CIG 007V012 P0001 T10171028 =
2018-02-23 23:18 METAR KHUL 240418Z AUTO 20010G16KT 2SM -SN BR OVC009 M02/M03 A2994 RMK AO2
                 SNB0358 P0001 T10221033 =
2018-02-23 23:04 METAR KHUL 240404Z AUTO 19008G17KT 1 3/4SM -SN BR OVC008 M03/M04 A2995 RMK AO2
                 SNB0358 P0000 T10281039 =
2018-02-23 22:53 METAR KHUL 240353Z AUTO 18008G16KT 5SM BR OVC009 M03/M04 A2996 RMK AO2 FZRAE38
                 SLP153 P0000 I1000 T10281039 =
2018-02-23 22:51 METAR KHUL 240351Z AUTO 20008G16KT 6SM BR OVC009 M03/M04 A2996 RMK AO2 FZRAE38
                 P0000 I1000 =
2018-02-23 22:44 METAR KHUL 240344Z AUTO 19009KT 6SM BR OVC010 M03/M04 A2997 RMK AO2 FZRAE38 CIG
                 008V013 P0000 I1000 T10281039 =
2018-02-23 22:12 METAR KHUL 240312Z AUTO 19010KT 6SM -FZRA BR OVC011 M03/M05 A2999 RMK AO2 CIG
                 009V013 P0000 I1000 T10331050 =
2018-02-23 22:02 METAR KHUL 240302Z AUTO 19012G19KT 6SM BR OVC011 M03/M05 A3000 RMK AO2 FZRAE0256
                 PRESFR P0000 I1000 T10331050 =
2018-02-23 21:53 METAR KHUL 240253Z AUTO 19010G18KT 5SM -FZRA BR BKN011 OVC019 M04/M05 A3002 RMK
                 AO2 UPE25B35E46FZRAB46SNB25E35 SLP173 P0001 60005 I1001 I3001 T10391050 56041 =
2018-02-23 21:42 METAR KHUL 240242Z AUTO 19009G16KT 3SM UP BR BKN013 OVC019 M04/M06 A3003 RMK AO2
                 UPE25B35SNB25E35 P0001 I1000 T10391056 =
2018-02-23 21:26 METAR KHUL 240226Z AUTO 18008KT 1 3/4SM -SN BR BKN016 BKN024 OVC030 M04/M06
                 A3004 RMK AO2 UPE25SNB25 PRESFR P0001 T10441056 =
2018-02-23 20:53 METAR KHUL 240153Z AUTO 18007KT 4SM UP BR SCT013 BKN017 OVC033 M04/M06 A3007 RMK
                 AO2 UPB41SNE32 PRESFR SLP193 P0001 T10441061 =
2018-02-23 20:30 METAR KHUL 240130Z AUTO VRB05KT 4SM -SN BR FEW010 BKN028 OVC047 M04/M06 A3010
                 RMK AO2 P0001 T10441061 =
2018-02-23 20:19 METAR KHUL 240119Z AUTO 19007KT 2SM -SN BR BKN017 OVC048 M04/M06 A3011 RMK AO2
                 P0001 T10441061 =
2018-02-23 20:06 METAR KHUL 240106Z AUTO 18007KT 1SM -SN BR VV012 M05/M06 A3012 RMK AO2 P0001
                 T10501061 =
2018-02-23 19:53 METAR KHUL 240053Z AUTO 18008G14KT 1/2SM SN FZFG VV007 M05/M06 A3014 RMK AO2
                 PRESFR SLP217 P0003 T10501061 =
2018-02-23 19:49 METAR KHUL 240049Z AUTO 18007G17KT 1/2SM SN FZFG VV008 M05/M06 A3015 RMK AO2
                 PRESFR P0003 =
2018-02-23 19:32 METAR KHUL 240032Z AUTO 19008G16KT 160V230 3/4SM -SN BR VV012 M04/M07 A3018 RMK
                 AO2 P0001 T10441067 =
2018-02-23 19:23 METAR KHUL 240023Z AUTO 18008KT 1SM -SN VV014 M04/M07 A3018 RMK AO2 P0000
                 T10441072 =
2018-02-23 19:00 METAR KHUL 240000Z AUTO 18011G21KT 1 3/4SM -SN OVC028 M03/M10 A3020 RMK AO2
                 P0000 T10331100 =
2018-02-23 18:53 METAR KHUL 232353Z AUTO 19010G18KT 4SM -SN OVC036 M03/M12 A3021 RMK AO2 SNB50
                 PRESFR SLP242 P0000 60000 T10281117 11022 21033 58054 =
2018-02-23 17:53 METAR KHUL 232253Z AUTO 19008KT 10SM BKN050 BKN070 OVC085 M02/M13 A3027 RMK AO2
                 SLP261 T10221128 =
2018-02-23 16:53 METAR KHUL 232153Z AUTO VRB04KT 10SM BKN080 OVC100 M02/M14 A3034 RMK AO2 SLP287
                 T10221139 =
2018-02-23 15:53 METAR KHUL 232053Z AUTO 19007KT 10SM OVC110 M02/M14 A3038 RMK AO2 PRESFR SLP298
                 T10221144 56051 =
2018-02-23 14:53 METAR KHUL 231953Z AUTO 19010KT 10SM OVC100 M02/M14 A3041 RMK AO2 SLP310
                 T10221139 =
2018-02-23 13:53 METAR KHUL 231853Z AUTO 20008KT 10SM CLR M02/M14 A3048 RMK AO2 SLP334 T10221144
                 =
2018-02-23 12:53 METAR KHUL 231753Z AUTO 20008KT 150V230 10SM CLR M03/M14 A3053 RMK AO2 SLP350
                 T10331144 11033 21200 58045 =
2018-02-23 11:53 METAR KHUL 231653Z AUTO 23006KT 10SM CLR M04/M14 A3059 RMK AO2 SLP371 T10441144
                 =
2018-02-23 10:53 METAR KHUL 231553Z AUTO 21006KT 10SM CLR M06/M14 A3063 RMK AO2 SLP386 T10561144
                 =
2018-02-23 09:53 METAR KHUL 231453Z AUTO 19005KT 10SM CLR M07/M15 A3066 RMK AO2 SLP395 T10721150
                 58014 =
2018-02-23 08:53 METAR KHUL 231353Z AUTO 22004KT 10SM CLR M09/M14 A3069 RMK AO2 SLP403 T10891144
                 =
2018-02-23 07:53 METAR KHUL 231253Z AUTO 00000KT 10SM CLR M16/M17 A3070 RMK AO2 SLP408 T11561167
                 =
2018-02-23 06:53 METAR KHUL 231153Z AUTO 00000KT 10SM CLR M20/M22 A3070 RMK AO2 SLP410 T12001222
                 11161 21206 52007 =
2018-02-23 05:53 METAR KHUL 231053Z AUTO 00000KT 10SM CLR M20/M22 A3069 RMK AO2 SLP405 T12001222
                 =
2018-02-23 04:53 METAR KHUL 230953Z AUTO 00000KT 10SM CLR M19/M21 A3070 RMK AO2 SLP408 T11941211
                 =
2018-02-23 03:53 METAR KHUL 230853Z AUTO 00000KT 10SM CLR M18/M19 A3068 RMK AO2 SLP402 T11781194
                 58002 =

Support USWX by starting your Amazon purchase here.